Time;durP1;ratioP1;P1;durP2;ratioP2;P2;SDS_P1;SDS_P2;PMS_P1;PMS_P2;Temp;Humidity;BMP_temperature;BMP_pressure;BME280_temperature;BME280_humidity;BME280_pressure;Samples;Min_cycle;Max_cycle;Signal;HPM_P1;HPM_P2
2022/03/05 00:01:36;;;;;;;17.47;8.27;;;4.10;99.90;;;;;;4945112;28;20971;-77
2022/03/05 00:04:02;;;;;;;21.47;8.40;;;4.00;99.90;;;;;;4912979;28;20240;-78
2022/03/05 00:06:27;;;;;;;20.77;8.90;;;4.00;99.90;;;;;;4944214;28;20211;-78
2022/03/05 00:08:53;;;;;;;19.97;9.40;;;4.00;99.90;;;;;;4963797;28;20228;-78
2022/03/05 00:11:19;;;;;;;18.00;9.00;;;4.00;99.90;;;;;;4946520;28;20483;-78
2022/03/05 00:13:44;;;;;;;17.37;8.03;;;4.00;99.90;;;;;;4935473;28;20221;-78
2022/03/05 00:16:10;;;;;;;19.37;9.13;;;3.90;99.90;;;;;;4933660;28;20339;-78
2022/03/05 00:18:36;;;;;;;22.50;9.03;;;4.00;99.90;;;;;;4942567;28;20197;-78
2022/03/05 00:21:01;;;;;;;23.67;9.80;;;3.90;99.90;;;;;;4948612;28;20678;-79
2022/03/05 00:23:27;;;;;;;16.67;7.90;;;3.80;99.90;;;;;;4951366;28;20212;-78
2022/03/05 00:25:52;;;;;;;29.93;9.70;;;3.80;99.90;;;;;;4934933;28;20189;-78
2022/03/05 00:28:18;;;;;;;19.23;8.93;;;3.80;99.90;;;;;;4951380;28;20299;-78
2022/03/05 00:30:45;;;;;;;25.80;10.00;;;3.80;99.90;;;;;;4933862;28;20692;-77
2022/03/05 00:33:11;;;;;;;18.17;8.67;;;3.70;99.90;;;;;;4958643;28;20196;-78
2022/03/05 00:35:36;;;;;;;25.93;10.17;;;3.70;99.90;;;;;;4950395;28;20188;-79
2022/03/05 00:38:02;;;;;;;20.83;9.33;;;3.70;99.90;;;;;;4951772;28;20752;-78
2022/03/05 00:40:28;;;;;;;22.27;9.27;;;3.70;99.90;;;;;;4928508;28;20189;-79
2022/03/05 00:42:54;;;;;;;19.83;9.23;;;3.60;99.90;;;;;;4934759;28;20220;-79
2022/03/05 00:45:19;;;;;;;19.00;8.77;;;3.60;99.90;;;;;;4948607;28;20640;-79
2022/03/05 00:47:45;;;;;;;24.73;9.13;;;3.50;99.90;;;;;;4943443;28;20532;-78
2022/03/05 00:50:11;;;;;;;24.23;10.23;;;3.50;99.90;;;;;;4934960;28;21055;-80
2022/03/05 00:52:37;;;;;;;21.10;9.90;;;3.50;99.90;;;;;;4958173;28;20196;-78
2022/03/05 00:55:04;;;;;;;24.40;10.27;;;3.50;99.90;;;;;;4966125;28;20204;-79
2022/03/05 00:57:30;;;;;;;24.83;10.40;;;3.50;99.90;;;;;;4949152;28;20220;-78
2022/03/05 00:59:55;;;;;;;23.00;9.77;;;3.40;99.90;;;;;;4961589;28;20269;-78
2022/03/05 01:02:21;;;;;;;28.10;10.50;;;3.40;99.90;;;;;;4947730;28;20307;-79
2022/03/05 01:04:47;;;;;;;22.17;10.27;;;3.30;99.90;;;;;;4944223;28;20202;-78
2022/03/05 01:07:13;;;;;;;25.67;11.00;;;3.30;99.90;;;;;;4958183;28;20288;-79
2022/03/05 01:09:38;;;;;;;24.57;9.77;;;3.30;99.90;;;;;;4945606;28;20237;-79
2022/03/05 01:12:04;;;;;;;25.27;10.07;;;3.20;99.90;;;;;;4963633;28;20594;-78
2022/03/05 01:14:30;;;;;;;28.57;11.43;;;3.20;99.90;;;;;;4960687;28;20219;-79
2022/03/05 01:16:56;;;;;;;27.53;11.23;;;3.20;99.90;;;;;;4958940;28;20739;-78
2022/03/05 01:19:21;;;;;;;26.60;11.40;;;3.20;99.90;;;;;;4964821;28;20274;-78
2022/03/05 01:21:47;;;;;;;25.23;11.23;;;3.20;99.90;;;;;;4958205;28;20189;-79
2022/03/05 01:24:12;;;;;;;25.87;11.40;;;3.10;99.90;;;;;;4944864;28;20193;-78
2022/03/05 01:26:38;;;;;;;30.43;11.73;;;3.10;99.90;;;;;;4958309;28;20212;-78
2022/03/05 01:29:04;;;;;;;25.50;11.63;;;3.10;99.90;;;;;;4960941;28;20350;-77
2022/03/05 01:31:30;;;;;;;25.50;11.47;;;3.10;99.90;;;;;;4960517;28;20197;-78
2022/03/05 01:33:55;;;;;;;27.87;11.80;;;3.00;99.90;;;;;;4962309;28;20194;-78
2022/03/05 01:36:21;;;;;;;30.50;11.77;;;3.00;99.90;;;;;;4950710;28;20201;-79
2022/03/05 01:38:46;;;;;;;28.80;11.30;;;3.00;99.90;;;;;;4961239;28;20197;-79
2022/03/05 01:41:12;;;;;;;31.00;13.10;;;2.90;99.90;;;;;;4947631;28;20240;-80
2022/03/05 01:43:38;;;;;;;30.70;13.17;;;2.90;99.90;;;;;;4946713;28;20208;-78
2022/03/05 01:46:03;;;;;;;30.60;13.07;;;2.80;99.90;;;;;;4964126;28;20198;-78
2022/03/05 01:48:29;;;;;;;33.90;13.63;;;2.80;99.90;;;;;;4949079;28;20200;-78
2022/03/05 01:50:55;;;;;;;34.93;13.90;;;2.80;99.90;;;;;;4959850;28;20667;-78
2022/03/05 01:53:21;;;;;;;31.83;12.90;;;2.80;99.90;;;;;;4946722;28;20196;-77
2022/03/05 01:55:47;;;;;;;32.13;14.10;;;2.70;99.90;;;;;;4947998;28;20192;-78
2022/03/05 01:58:12;;;;;;;34.87;14.00;;;2.70;99.90;;;;;;4960183;28;20652;-79
2022/03/05 02:00:38;;;;;;;36.37;13.67;;;2.70;99.90;;;;;;4963936;28;20384;-80
2022/03/05 02:03:04;;;;;;;30.33;12.60;;;2.60;99.90;;;;;;4958530;28;20308;-80
2022/03/05 02:05:30;;;;;;;30.93;13.07;;;2.60;99.90;;;;;;4963211;28;20205;-79
2022/03/05 02:07:55;;;;;;;33.13;14.40;;;2.60;99.90;;;;;;4963845;28;20681;-79
2022/03/05 02:10:21;;;;;;;28.60;13.43;;;2.60;99.90;;;;;;4962452;28;20252;-78
2022/03/05 02:12:47;;;;;;;33.53;14.13;;;2.60;99.90;;;;;;4948454;28;20264;-80
2022/03/05 02:15:12;;;;;;;40.03;15.10;;;2.60;99.90;;;;;;4963481;28;20201;-79
2022/03/05 02:17:38;;;;;;;37.53;14.93;;;2.60;99.90;;;;;;4962058;28;20209;-80
2022/03/05 02:20:06;;;;;;;31.60;14.30;;;2.50;99.90;;;;;;4968589;28;20197;-77
2022/03/05 02:22:32;;;;;;;40.07;14.57;;;2.50;99.90;;;;;;4951341;28;20635;-78
2022/03/05 02:24:59;;;;;;;37.10;14.17;;;2.40;99.90;;;;;;4962915;28;20352;-79
2022/03/05 02:27:27;;;;;;;38.50;15.63;;;2.40;99.90;;;;;;4962747;28;20194;-80
2022/03/05 02:29:53;;;;;;;35.00;15.27;;;2.40;99.90;;;;;;4917056;28;20707;-79
2022/03/05 02:32:20;;;;;;;34.67;14.93;;;2.40;99.90;;;;;;4953393;28;20195;-79
2022/03/05 02:34:46;;;;;;;39.03;15.30;;;2.40;99.90;;;;;;4948800;28;20205;-79
2022/03/05 02:37:15;;;;;;;43.30;15.10;;;2.30;99.90;;;;;;4962199;28;20221;-79
2022/03/05 02:39:41;;;;;;;36.27;15.43;;;2.30;99.90;;;;;;4961455;28;20204;-79
2022/03/05 02:42:07;;;;;;;34.50;15.07;;;2.30;99.90;;;;;;4951523;28;20667;-78
2022/03/05 02:44:32;;;;;;;35.97;14.80;;;2.30;99.90;;;;;;4963968;28;20220;-79
2022/03/05 02:46:58;;;;;;;45.90;17.10;;;2.30;99.90;;;;;;4965980;28;20215;-79
2022/03/05 02:49:25;;;;;;;39.60;15.80;;;2.20;99.90;;;;;;4948535;28;20185;-79
2022/03/05 02:51:51;;;;;;;37.33;15.23;;;2.20;99.90;;;;;;4961390;28;20577;-79
2022/03/05 02:54:16;;;;;;;35.43;14.90;;;2.20;99.90;;;;;;4963670;28;20742;-79
2022/03/05 02:56:42;;;;;;;42.23;16.30;;;2.20;99.90;;;;;;4963424;28;20221;-79
2022/03/05 02:59:08;;;;;;;39.73;16.43;;;2.20;99.90;;;;;;4963270;28;20216;-79
2022/03/05 03:01:34;;;;;;;42.90;16.23;;;2.10;99.90;;;;;;4960591;28;20260;-77
2022/03/05 03:03:59;;;;;;;40.53;16.13;;;2.10;99.90;;;;;;4965187;28;20201;-80
2022/03/05 03:06:25;;;;;;;35.63;14.73;;;2.00;99.90;;;;;;4960983;28;20192;-79
2022/03/05 03:08:50;;;;;;;43.70;15.23;;;2.00;99.90;;;;;;4944691;28;20834;-79
2022/03/05 03:11:16;;;;;;;38.93;15.97;;;2.00;99.90;;;;;;4962798;28;20227;-79
2022/03/05 03:13:42;;;;;;;37.57;14.97;;;2.00;99.90;;;;;;4963360;28;20209;-78
2022/03/05 03:16:09;;;;;;;40.47;15.33;;;2.00;99.90;;;;;;4961341;28;20570;-79
2022/03/05 03:18:35;;;;;;;39.17;14.70;;;2.00;99.90;;;;;;4959596;28;20213;-79
2022/03/05 03:21:00;;;;;;;42.50;15.37;;;2.00;99.90;;;;;;4948200;28;20181;-79
2022/03/05 03:23:26;;;;;;;42.27;16.80;;;1.90;99.90;;;;;;4966698;28;20201;-79
2022/03/05 03:25:52;;;;;;;37.67;15.57;;;1.90;99.90;;;;;;4947469;28;20244;-79
2022/03/05 03:28:17;;;;;;;42.63;16.43;;;1.80;99.90;;;;;;4952011;28;20655;-79
2022/03/05 03:30:43;;;;;;;41.00;16.53;;;1.80;99.90;;;;;;4960952;28;20526;-79
2022/03/05 03:33:09;;;;;;;35.80;15.17;;;1.80;99.90;;;;;;4960688;28;20292;-78
2022/03/05 03:35:35;;;;;;;46.77;14.73;;;1.80;99.90;;;;;;4963041;28;20309;-79
2022/03/05 03:38:01;;;;;;;38.97;15.90;;;1.80;99.90;;;;;;4940685;28;20232;-77
2022/03/05 03:40:27;;;;;;;42.10;17.17;;;1.80;99.90;;;;;;4965454;28;20197;-77
2022/03/05 03:42:53;;;;;;;42.13;16.40;;;1.70;99.90;;;;;;4947635;28;20209;-77
2022/03/05 03:45:19;;;;;;;43.27;16.27;;;1.80;99.90;;;;;;4966189;28;20332;-78
2022/03/05 03:47:48;;;;;;;40.17;15.63;;;1.70;99.90;;;;;;4965635;28;20201;-77
2022/03/05 03:50:15;;;;;;;40.60;14.83;;;1.70;99.90;;;;;;4968792;28;20213;-78
2022/03/05 03:52:41;;;;;;;42.40;15.97;;;1.70;99.90;;;;;;4966087;28;20228;-78
2022/03/05 03:55:09;;;;;;;39.90;16.30;;;1.60;99.90;;;;;;4946349;28;20195;-78
2022/03/05 03:57:35;;;;;;;40.30;15.47;;;1.60;99.90;;;;;;4962659;28;20244;-77
2022/03/05 04:00:00;;;;;;;34.30;15.00;;;1.60;99.90;;;;;;4942488;28;20201;-78
2022/03/05 04:02:26;;;;;;;34.50;14.60;;;1.60;99.90;;;;;;4961693;28;20197;-77
2022/03/05 04:04:52;;;;;;;39.63;15.70;;;1.50;99.90;;;;;;4964046;28;20253;-77
2022/03/05 04:10:06;;;;;;;38.37;16.10;;;1.50;99.90;;;;;;4961420;28;20609;-77
2022/03/05 04:12:32;;;;;;;43.03;15.67;;;1.50;99.90;;;;;;4948901;28;20204;-78
2022/03/05 04:14:58;;;;;;;42.57;16.60;;;1.50;99.90;;;;;;4927493;28;20249;-78
2022/03/05 04:17:23;;;;;;;39.30;15.17;;;1.50;99.90;;;;;;4959017;28;20608;-78
2022/03/05 04:19:49;;;;;;;45.20;16.17;;;1.50;99.90;;;;;;4949834;28;20236;-78
2022/03/05 04:22:15;;;;;;;38.30;15.13;;;1.50;99.90;;;;;;4935180;28;20204;-78
2022/03/05 04:24:40;;;;;;;42.27;16.17;;;1.40;99.90;;;;;;4960644;28;20265;-79
2022/03/05 04:27:06;;;;;;;40.70;15.37;;;1.40;99.90;;;;;;4944981;28;20196;-79
2022/03/05 04:29:33;;;;;;;45.47;15.97;;;1.40;99.90;;;;;;4957706;28;20575;-78
2022/03/05 04:31:59;;;;;;;45.90;16.33;;;1.40;99.90;;;;;;4960368;28;20208;-78
2022/03/05 04:34:24;;;;;;;39.73;16.07;;;1.30;99.90;;;;;;4961531;28;20189;-79
2022/03/05 04:36:50;;;;;;;39.50;15.63;;;1.40;99.90;;;;;;4959613;28;20211;-78
2022/03/05 04:39:15;;;;;;;41.17;15.90;;;1.40;99.90;;;;;;4961609;28;20808;-79
2022/03/05 04:41:41;;;;;;;42.17;16.10;;;1.30;99.90;;;;;;4962511;28;20212;-79
2022/03/05 04:44:07;;;;;;;44.43;16.67;;;1.30;99.90;;;;;;4944339;28;20360;-78
2022/03/05 04:46:33;;;;;;;40.57;16.00;;;1.30;99.90;;;;;;4962913;28;20197;-78
2022/03/05 04:48:59;;;;;;;42.87;15.80;;;1.20;99.90;;;;;;4961180;28;20224;-78
2022/03/05 04:51:25;;;;;;;43.83;16.30;;;1.30;99.90;;;;;;4961205;28;20189;-78
2022/03/05 04:53:50;;;;;;;39.90;16.77;;;1.20;99.90;;;;;;4960817;28;20201;-78
2022/03/05 04:56:16;;;;;;;44.73;16.87;;;1.20;99.90;;;;;;4960026;28;20192;-77
2022/03/05 04:58:42;;;;;;;46.10;17.60;;;1.20;99.90;;;;;;4947997;28;21292;-78
2022/03/05 05:01:07;;;;;;;45.50;16.50;;;1.20;99.90;;;;;;4959845;28;20590;-77
2022/03/05 05:03:33;;;;;;;41.23;17.03;;;1.10;99.90;;;;;;4942495;28;20209;-77
2022/03/05 05:05:59;;;;;;;40.13;17.03;;;1.10;99.90;;;;;;4961776;28;20215;-78
2022/03/05 05:08:25;;;;;;;43.57;17.03;;;1.10;99.90;;;;;;4957989;28;20192;-78
2022/03/05 05:10:51;;;;;;;41.63;16.90;;;1.10;99.90;;;;;;4957963;28;20938;-79
2022/03/05 05:13:17;;;;;;;46.33;16.37;;;1.10;99.90;;;;;;4958529;28;20217;-78
2022/03/05 05:15:42;;;;;;;44.33;16.13;;;1.10;99.90;;;;;;4942915;28;20543;-78
2022/03/05 05:18:08;;;;;;;42.40;16.00;;;1.00;99.90;;;;;;4940237;28;20225;-78
2022/03/05 05:20:34;;;;;;;43.53;16.73;;;1.00;99.90;;;;;;4958661;28;20193;-78
2022/03/05 05:22:59;;;;;;;45.13;16.77;;;1.00;99.90;;;;;;4942272;28;20259;-79
2022/03/05 05:25:25;;;;;;;50.43;17.13;;;1.00;99.90;;;;;;4942947;28;20201;-78
2022/03/05 05:27:51;;;;;;;47.73;17.40;;;0.90;99.90;;;;;;4961063;28;20753;-78
2022/03/05 05:30:16;;;;;;;43.33;16.37;;;1.00;99.90;;;;;;4961609;28;20200;-79
2022/03/05 05:32:42;;;;;;;41.43;15.93;;;1.00;99.90;;;;;;4959640;28;20610;-77
2022/03/05 05:35:08;;;;;;;46.73;17.40;;;1.00;99.90;;;;;;4945338;28;20282;-78
2022/03/05 05:37:34;;;;;;;45.40;16.47;;;0.90;99.90;;;;;;4947764;28;20221;-78
2022/03/05 05:40:00;;;;;;;49.70;17.27;;;0.90;99.90;;;;;;4941012;28;20248;-77
2022/03/05 05:42:26;;;;;;;44.80;16.63;;;0.90;99.90;;;;;;4947707;28;20189;-79
2022/03/05 05:44:51;;;;;;;41.47;17.33;;;0.90;99.90;;;;;;4933213;28;20818;-77
2022/03/05 05:47:17;;;;;;;41.23;16.57;;;0.80;99.90;;;;;;4941924;28;20193;-78
2022/03/05 05:49:43;;;;;;;44.83;16.67;;;0.70;99.90;;;;;;4961434;28;20248;-79
2022/03/05 05:52:09;;;;;;;50.27;17.97;;;0.70;99.90;;;;;;4957713;28;20636;-79
2022/03/05 05:54:35;;;;;;;47.93;17.17;;;0.70;99.90;;;;;;4941274;28;20271;-78
2022/03/05 05:57:01;;;;;;;45.10;16.87;;;0.70;99.90;;;;;;4957399;28;20234;-77
2022/03/05 05:59:27;;;;;;;41.57;17.00;;;0.70;99.90;;;;;;4959182;28;20217;-78
2022/03/05 06:01:52;;;;;;;43.73;16.70;;;0.60;99.90;;;;;;4948164;28;20208;-77
2022/03/05 06:04:18;;;;;;;46.13;17.63;;;0.70;99.90;;;;;;4959903;28;20217;-78
2022/03/05 06:06:43;;;;;;;47.23;17.53;;;0.70;99.90;;;;;;4961332;28;20217;-78
2022/03/05 06:09:09;;;;;;;47.87;16.63;;;0.60;99.90;;;;;;4947672;28;20237;-79
2022/03/05 06:11:35;;;;;;;51.27;17.60;;;0.60;99.90;;;;;;4955514;28;20792;-78
2022/03/05 06:14:00;;;;;;;45.63;17.10;;;0.60;99.90;;;;;;4959781;28;20694;-78
2022/03/05 06:16:26;;;;;;;48.30;16.87;;;0.50;99.90;;;;;;4969485;28;20212;-78
2022/03/05 06:18:52;;;;;;;42.97;16.53;;;0.50;99.90;;;;;;4942237;28;20949;-78
2022/03/05 06:21:17;;;;;;;43.67;16.67;;;0.50;99.90;;;;;;4951506;28;20205;-78
2022/03/05 06:23:43;;;;;;;45.73;16.80;;;0.50;99.90;;;;;;4962885;28;20189;-78
2022/03/05 06:26:09;;;;;;;45.03;16.50;;;0.50;99.90;;;;;;4966274;28;20561;-79
2022/03/05 06:28:35;;;;;;;46.67;18.23;;;0.50;99.90;;;;;;4963792;28;20212;-78
2022/03/05 06:31:02;;;;;;;45.13;16.93;;;0.50;99.90;;;;;;4949124;28;20265;-79
2022/03/05 06:33:28;;;;;;;48.83;18.80;;;0.50;99.90;;;;;;4944376;28;20191;-77
2022/03/05 06:35:54;;;;;;;52.43;18.53;;;0.50;99.90;;;;;;4952468;28;20193;-79
2022/03/05 06:38:19;;;;;;;49.70;16.97;;;0.50;99.90;;;;;;4929040;28;20284;-77
2022/03/05 06:40:45;;;;;;;47.33;15.97;;;0.50;99.90;;;;;;4965929;28;20237;-77
2022/03/05 06:43:11;;;;;;;44.03;17.43;;;0.50;99.90;;;;;;4947577;28;20359;-77
2022/03/05 06:45:37;;;;;;;54.03;18.10;;;0.50;99.90;;;;;;4960405;28;20330;-77
2022/03/05 06:48:04;;;;;;;52.73;18.13;;;0.50;99.90;;;;;;4946436;28;20317;-78
2022/03/05 06:50:31;;;;;;;47.53;17.47;;;0.60;99.90;;;;;;4964331;28;20271;-78
2022/03/05 06:52:56;;;;;;;51.67;18.33;;;0.60;99.90;;;;;;4938139;28;20677;-78
2022/03/05 06:55:23;;;;;;;49.50;17.33;;;0.60;99.90;;;;;;4962407;28;20623;-79
2022/03/05 06:57:49;;;;;;;51.90;17.07;;;0.70;99.90;;;;;;4946248;28;20252;-78
2022/03/05 07:00:15;;;;;;;49.93;18.40;;;0.80;99.90;;;;;;4963083;28;20260;-79
2022/03/05 07:02:42;;;;;;;52.67;18.37;;;0.80;99.90;;;;;;4944408;28;20223;-79
2022/03/05 07:05:09;;;;;;;48.93;17.90;;;0.90;99.90;;;;;;4951761;28;20199;-79
2022/03/05 07:07:35;;;;;;;45.77;18.03;;;0.90;99.90;;;;;;4961945;28;20186;-77
2022/03/05 07:10:01;;;;;;;50.77;17.43;;;0.90;99.90;;;;;;4960496;28;20800;-79
2022/03/05 07:12:26;;;;;;;45.77;17.93;;;0.90;99.90;;;;;;4959411;28;20197;-77
2022/03/05 07:14:52;;;;;;;47.37;18.43;;;1.00;99.90;;;;;;4961775;28;20193;-78
2022/03/05 07:17:18;;;;;;;44.10;17.43;;;1.00;99.90;;;;;;4945895;28;20275;-77
2022/03/05 07:19:45;;;;;;;50.83;18.10;;;1.00;99.90;;;;;;4960500;28;20213;-79
2022/03/05 07:22:11;;;;;;;49.30;17.97;;;1.10;99.90;;;;;;4962510;28;20193;-79
2022/03/05 07:24:37;;;;;;;48.10;17.07;;;1.10;99.90;;;;;;4954117;28;20188;-80
2022/03/05 07:27:03;;;;;;;51.70;18.93;;;1.10;99.90;;;;;;4945236;28;20270;-78
2022/03/05 07:29:29;;;;;;;48.70;18.83;;;1.00;99.90;;;;;;4955591;28;20320;-79
2022/03/05 07:31:54;;;;;;;49.10;17.40;;;1.10;99.90;;;;;;4952204;28;20272;-79
2022/03/05 07:34:20;;;;;;;47.67;18.20;;;1.10;99.90;;;;;;4967610;28;20543;-78
2022/03/05 07:36:45;;;;;;;52.40;19.03;;;1.20;99.90;;;;;;4970631;28;20303;-79
2022/03/05 07:39:11;;;;;;;47.60;17.67;;;1.20;99.90;;;;;;4957415;28;20196;-78
2022/03/05 07:41:37;;;;;;;50.90;17.93;;;1.20;99.90;;;;;;4955027;28;20226;-80
2022/03/05 07:44:04;;;;;;;48.23;17.50;;;1.30;99.90;;;;;;4966953;28;20217;-79
2022/03/05 07:46:30;;;;;;;53.37;19.03;;;1.30;99.90;;;;;;4957966;28;20783;-78
2022/03/05 07:48:56;;;;;;;51.23;19.03;;;1.40;99.90;;;;;;4964340;28;20247;-79
2022/03/05 07:51:22;;;;;;;51.10;17.80;;;1.50;99.90;;;;;;4952005;28;20189;-77
2022/03/05 07:53:47;;;;;;;53.97;19.50;;;1.50;99.90;;;;;;4958948;28;20211;-79
2022/03/05 07:56:13;;;;;;;45.60;18.90;;;1.50;99.90;;;;;;4930195;28;20311;-79
2022/03/05 07:58:38;;;;;;;47.97;17.77;;;1.50;99.90;;;;;;4944540;28;20592;-79
2022/03/05 08:01:04;;;;;;;48.97;18.50;;;1.60;99.90;;;;;;4959471;28;20573;-78
2022/03/05 08:03:30;;;;;;;51.37;18.63;;;1.60;99.90;;;;;;4935219;28;20333;-77
2022/03/05 08:05:56;;;;;;;47.97;18.60;;;1.70;99.90;;;;;;4949090;28;20664;-78
2022/03/05 08:08:22;;;;;;;54.63;18.90;;;1.70;99.90;;;;;;4961670;28;20276;-78
2022/03/05 08:10:47;;;;;;;49.93;18.50;;;1.80;99.90;;;;;;4946851;28;20348;-78
2022/03/05 08:13:13;;;;;;;49.20;18.07;;;1.90;99.90;;;;;;4943400;28;20265;-79
2022/03/05 08:15:39;;;;;;;50.13;19.07;;;1.90;99.90;;;;;;4945712;28;20251;-79
2022/03/05 08:18:04;;;;;;;51.90;20.10;;;2.00;99.90;;;;;;4959890;28;20216;-79
2022/03/05 08:20:31;;;;;;;45.97;18.50;;;2.00;99.90;;;;;;4960764;28;20205;-79
2022/03/05 08:22:58;;;;;;;52.57;20.13;;;2.10;99.90;;;;;;4962244;28;20189;-79
2022/03/05 08:25:25;;;;;;;54.17;19.50;;;2.10;99.90;;;;;;4961840;28;20192;-80
2022/03/05 08:27:51;;;;;;;46.73;18.57;;;2.20;99.90;;;;;;4960072;28;20265;-79
2022/03/05 08:30:19;;;;;;;54.00;19.97;;;2.20;99.90;;;;;;4962677;28;20209;-80
2022/03/05 08:32:45;;;;;;;51.40;19.23;;;2.30;99.90;;;;;;4965879;28;20261;-82
2022/03/05 08:35:11;;;;;;;45.60;18.10;;;2.30;99.90;;;;;;4944307;28;20291;-81
2022/03/05 08:37:38;;;;;;;49.10;19.27;;;2.40;99.90;;;;;;4932152;28;20208;-80
2022/03/05 08:40:05;;;;;;;45.60;17.00;;;2.50;99.90;;;;;;4962148;28;20229;-81
2022/03/05 08:42:31;;;;;;;49.90;18.87;;;2.50;99.90;;;;;;4945943;28;20190;-80
2022/03/05 08:44:57;;;;;;;50.50;19.37;;;3.30;99.90;;;;;;4945917;28;20220;-80
2022/03/05 08:47:22;;;;;;;51.50;20.27;;;5.40;99.90;;;;;;4963520;28;20243;-81
2022/03/05 08:49:48;;;;;;;47.03;19.63;;;7.50;99.90;;;;;;4945035;28;20287;-80
2022/03/05 08:52:13;;;;;;;46.33;19.10;;;9.30;99.90;;;;;;4959129;28;20371;-80
2022/03/05 08:54:39;;;;;;;43.93;19.40;;;10.60;99.90;;;;;;4946163;28;20207;-81
2022/03/05 08:57:06;;;;;;;42.50;18.17;;;11.80;99.90;;;;;;4945547;28;20709;-81
2022/03/05 08:59:32;;;;;;;42.97;18.00;;;13.00;99.90;;;;;;4959373;28;20224;-80
2022/03/05 09:01:58;;;;;;;43.23;18.67;;;14.10;99.90;;;;;;4961638;28;20616;-79
2022/03/05 09:04:23;;;;;;;40.73;18.13;;;15.00;99.90;;;;;;4942473;28;20283;-80
2022/03/05 09:06:49;;;;;;;34.97;17.87;;;15.30;99.90;;;;;;4941046;28;20656;-80
2022/03/05 09:09:14;;;;;;;41.33;18.50;;;15.80;99.90;;;;;;4926013;28;20198;-79
2022/03/05 09:11:40;;;;;;;39.40;18.53;;;16.30;99.90;;;;;;4944297;28;20368;-80
2022/03/05 09:14:07;;;;;;;39.50;18.83;;;16.60;99.90;;;;;;4963089;28;20224;-80
2022/03/05 09:16:35;;;;;;;39.93;20.17;;;16.70;99.90;;;;;;4959719;28;20329;-79
2022/03/05 09:19:01;;;;;;;39.60;19.13;;;16.60;99.90;;;;;;4961774;28;20197;-80
2022/03/05 09:21:27;;;;;;;39.50;18.53;;;16.70;99.90;;;;;;4957735;28;20227;-79
2022/03/05 09:23:52;;;;;;;41.53;19.57;;;17.20;99.90;;;;;;4942071;28;20215;-80
2022/03/05 09:26:18;;;;;;;42.50;19.77;;;17.60;99.90;;;;;;4934868;28;20624;-83
2022/03/05 09:28:44;;;;;;;39.43;19.70;;;18.10;99.90;;;;;;4931106;28;20203;-81
2022/03/05 09:31:10;;;;;;;37.90;19.33;;;18.20;99.90;;;;;;4942842;28;20275;-81
2022/03/05 09:33:37;;;;;;;37.37;19.13;;;18.20;99.10;;;;;;4962590;28;20549;-81
2022/03/05 09:36:03;;;;;;;35.47;18.73;;;18.50;98.60;;;;;;4964147;28;20352;-81
2022/03/05 09:38:29;;;;;;;35.13;18.60;;;19.00;96.80;;;;;;4943284;28;20219;-80
2022/03/05 09:40:54;;;;;;;40.00;19.80;;;19.40;95.10;;;;;;4958898;28;20558;-81
2022/03/05 09:43:21;;;;;;;39.10;19.43;;;19.70;94.10;;;;;;4928925;28;20277;-79
2022/03/05 09:45:47;;;;;;;40.97;19.87;;;19.90;92.80;;;;;;4951782;28;20686;-80
2022/03/05 09:48:15;;;;;;;40.70;20.03;;;20.00;92.00;;;;;;4921099;28;20193;-81
2022/03/05 09:50:41;;;;;;;36.33;18.80;;;19.90;90.80;;;;;;4946925;28;20280;-80
2022/03/05 09:53:07;;;;;;;39.90;20.53;;;19.80;90.30;;;;;;4968493;28;20204;-81
2022/03/05 09:55:32;;;;;;;36.90;19.20;;;20.10;88.60;;;;;;4963087;28;20217;-81
2022/03/05 09:57:59;;;;;;;39.93;20.30;;;20.60;86.40;;;;;;4963183;28;20291;-80
2022/03/05 10:00:25;;;;;;;39.00;20.67;;;21.00;83.50;;;;;;4918140;28;20189;-82
2022/03/05 10:02:51;;;;;;;36.47;19.43;;;21.30;81.00;;;;;;4966817;28;20237;-80
2022/03/05 10:05:31;;;;;;;38.97;20.33;;;21.10;79.60;;;;;;4963735;28;20227;-80
2022/03/05 10:08:15;;;;;;;31.73;18.97;;;21.10;78.90;;;;;;4963462;28;20227;-80
2022/03/05 10:10:48;;;;;;;36.00;19.07;;;21.00;76.90;;;;;;4970146;28;20270;-80
2022/03/05 10:13:31;;;;;;;35.87;19.90;;;20.80;76.30;;;;;;4964925;28;20301;-80
2022/03/05 10:16:00;;;;;;;36.37;19.67;;;20.90;75.10;;;;;;4979792;28;20197;-80
2022/03/05 10:18:33;;;;;;;38.20;20.70;;;20.80;75.50;;;;;;4963711;28;20283;-80
2022/03/05 10:21:02;;;;;;;37.07;19.47;;;20.90;74.70;;;;;;4960441;28;20187;-80
2022/03/05 10:23:32;;;;;;;37.63;20.00;;;21.30;73.90;;;;;;4951069;28;20287;-81
2022/03/05 10:25:58;;;;;;;34.80;19.30;;;22.00;71.70;;;;;;4964483;28;20206;-81
2022/03/05 10:28:28;;;;;;;37.37;20.03;;;22.80;69.60;;;;;;4967491;28;20702;-80
2022/03/05 10:30:55;;;;;;;39.07;20.33;;;23.40;66.90;;;;;;4963429;28;20197;-80
2022/03/05 10:33:36;;;;;;;36.63;20.70;;;23.80;65.10;;;;;;4962736;28;20209;-80
2022/03/05 10:36:21;;;;;;;35.67;19.30;;;24.30;61.90;;;;;;4967761;28;20194;-81
2022/03/05 10:38:51;;;;;;;34.17;19.60;;;24.70;60.10;;;;;;4953655;28;20207;-82
2022/03/05 10:41:34;;;;;;;32.63;19.70;;;24.70;58.90;;;;;;4962675;28;20186;-81
2022/03/05 10:44:07;;;;;;;35.50;20.97;;;23.40;57.20;;;;;;4960439;28;20256;-80
2022/03/05 10:46:40;;;;;;;35.33;19.47;;;20.80;57.90;;;;;;4963032;28;20199;-80
2022/03/05 10:49:16;;;;;;;39.20;20.67;;;18.50;59.50;;;;;;4950166;28;20184;-81
2022/03/05 10:51:47;;;;;;;39.20;21.00;;;16.50;61.40;;;;;;4979312;28;20708;-79
2022/03/05 10:54:24;;;;;;;40.93;21.10;;;14.80;63.40;;;;;;4977310;28;20637;-80
2022/03/05 10:56:49;;;;;;;43.20;20.67;;;13.40;65.40;;;;;;4964493;28;20348;-80
2022/03/05 10:59:16;;;;;;;42.80;20.07;;;12.40;67.80;;;;;;4960551;28;20844;-81
2022/03/05 11:01:44;;;;;;;39.37;18.97;;;12.50;70.80;;;;;;4959978;28;20197;-81
2022/03/05 11:04:12;;;;;;;41.17;19.77;;;14.20;73.00;;;;;;4945275;28;20219;-82
2022/03/05 11:06:42;;;;;;;40.30;20.73;;;16.50;71.70;;;;;;4977353;28;20232;-80
2022/03/05 11:09:10;;;;;;;34.67;19.03;;;18.40;69.00;;;;;;4984209;28;20245;-81
2022/03/05 11:11:39;;;;;;;38.33;19.70;;;19.70;66.00;;;;;;4972275;28;20229;-82
2022/03/05 11:14:06;;;;;;;38.47;19.60;;;20.80;64.10;;;;;;4968962;28;20220;-82
2022/03/05 11:16:32;;;;;;;36.00;19.67;;;22.00;62.50;;;;;;4949676;28;20229;-82
2022/03/05 11:18:58;;;;;;;40.93;19.27;;;23.00;60.00;;;;;;4968606;28;20225;-80
2022/03/05 11:21:25;;;;;;;35.10;20.30;;;23.20;58.40;;;;;;4961922;28;20301;-83
2022/03/05 11:23:51;;;;;;;34.30;20.30;;;23.50;57.30;;;;;;4962748;28;20214;-81
2022/03/05 11:26:17;;;;;;;37.37;20.80;;;23.70;56.10;;;;;;4960838;28;20245;-83
2022/03/05 11:28:48;;;;;;;34.33;19.87;;;23.90;55.20;;;;;;4947343;28;20221;-84
2022/03/05 11:31:16;;;;;;;37.53;20.80;;;24.00;54.20;;;;;;4965580;28;20287;-85
2022/03/05 11:33:43;;;;;;;32.10;19.90;;;24.00;53.30;;;;;;4970133;28;20212;-84
2022/03/05 11:36:24;;;;;;;33.87;19.83;;;23.90;53.10;;;;;;4980177;28;20217;-81
2022/03/05 11:39:13;;;;;;;36.93;20.53;;;24.00;52.40;;;;;;4978007;28;20606;-82
2022/03/05 11:41:51;;;;;;;33.30;20.07;;;24.90;52.10;;;;;;4964262;28;20240;-79
2022/03/05 11:44:18;;;;;;;31.33;20.23;;;25.40;50.90;;;;;;4964492;28;20209;-79
2022/03/05 11:46:45;;;;;;;32.60;20.73;;;25.00;49.60;;;;;;4975015;28;20214;-80
2022/03/05 11:49:12;;;;;;;34.23;20.80;;;23.50;49.20;;;;;;4957366;28;20311;-81
2022/03/05 11:51:56;;;;;;;35.40;21.43;;;21.60;49.90;;;;;;4949920;28;20313;-81
2022/03/05 11:54:23;;;;;;;35.20;20.53;;;19.50;51.10;;;;;;4951827;28;20253;-82
2022/03/05 11:57:10;;;;;;;37.80;21.13;;;17.80;52.80;;;;;;4951520;28;20234;-81
2022/03/05 11:59:39;;;;;;;38.87;20.13;;;16.30;54.70;;;;;;4961460;28;20191;-82
2022/03/05 12:02:05;;;;;;;37.87;20.60;;;15.20;56.10;;;;;;4949334;28;20224;-81
2022/03/05 12:04:31;;;;;;;41.93;21.40;;;14.50;57.30;;;;;;4949642;28;20209;-82
2022/03/05 12:07:11;;;;;;;38.47;20.30;;;14.00;58.20;;;;;;4964391;28;20217;-80
2022/03/05 12:09:56;;;;;;;41.87;20.33;;;13.60;58.80;;;;;;4965163;28;20661;-80
2022/03/05 12:12:22;;;;;;;44.53;19.63;;;13.20;59.70;;;;;;4964808;28;20191;-81
2022/03/05 12:15:03;;;;;;;43.10;18.83;;;12.90;60.00;;;;;;4959319;28;20242;-81
2022/03/05 12:17:39;;;;;;;44.70;19.30;;;12.40;61.20;;;;;;4963162;28;20250;-82
2022/03/05 12:20:06;;;;;;;41.77;19.43;;;12.10;62.40;;;;;;4965681;28;20594;-81
2022/03/05 12:22:33;;;;;;;38.00;19.27;;;11.90;63.20;;;;;;4967085;28;20188;-79
2022/03/05 12:24:58;;;;;;;41.40;20.30;;;11.70;63.90;;;;;;4959787;28;20189;-80
2022/03/05 12:27:28;;;;;;;40.30;20.23;;;11.60;64.60;;;;;;4957904;28;20237;-80
2022/03/05 12:29:54;;;;;;;43.37;19.73;;;11.50;65.30;;;;;;4961387;28;20189;-81
2022/03/05 12:32:27;;;;;;;44.27;20.90;;;11.50;65.80;;;;;;4978610;28;20186;-82
2022/03/05 12:34:53;;;;;;;44.57;20.23;;;11.30;66.40;;;;;;4977579;28;20189;-82
2022/03/05 12:37:18;;;;;;;42.40;19.57;;;11.20;67.00;;;;;;4945888;28;20208;-80